Time;durP1;ratioP1;P1;durP2;ratioP2;P2;SDS_P1;SDS_P2;PMS_P1;PMS_P2;Temp;Humidity;BMP_temperature;BMP_pressure;BME280_temperature;BME280_humidity;BME280_pressure;Samples;Min_cycle;Max_cycle;Signal;HPM_P1;HPM_P2
2023/07/27 00:00:06;;;;;;;;;3.00;3.00;;;;;18.58;55.09;99196.06;4973247;28;45561;-65
2023/07/27 00:02:32;;;;;;;;;4.00;4.00;;;;;18.56;55.21;99191.78;4969666;28;45566;-65
2023/07/27 00:04:58;;;;;;;;;4.00;4.00;;;;;18.53;54.90;99190.19;4970329;28;45549;-65
2023/07/27 00:07:24;;;;;;;;;4.00;3.75;;;;;18.53;54.92;99187.50;4975740;28;46156;-64
2023/07/27 00:09:49;;;;;;;;;5.80;4.40;;;;;18.54;54.86;99193.72;4969717;28;45533;-64
2023/07/27 00:12:15;;;;;;;;;3.50;3.50;;;;;18.53;55.11;99194.66;4971674;28;45864;-64
2023/07/27 00:14:40;;;;;;;;;5.75;4.00;;;;;18.51;55.22;99185.91;4972227;28;45482;-64
2023/07/27 00:17:06;;;;;;;;;5.00;5.00;;;;;18.49;55.63;99186.88;4971966;28;46532;-64
2023/07/27 00:19:31;;;;;;;;;4.00;4.00;;;;;18.49;55.62;99191.34;4972543;28;45438;-64
2023/07/27 00:21:57;;;;;;;;;5.00;5.00;;;;;18.48;55.22;99193.19;4975989;28;45391;-64
2023/07/27 00:24:23;;;;;;;;;4.25;4.00;;;;;18.47;55.46;99194.13;4973058;28;45438;-64
2023/07/27 00:26:48;;;;;;;;;6.50;4.50;;;;;18.45;55.73;99189.84;4975252;28;46480;-64
2023/07/27 00:29:13;;;;;;;;;4.00;3.50;;;;;18.44;55.78;99189.00;4973468;28;45456;-64
2023/07/27 00:31:39;;;;;;;;;4.00;4.00;;;;;18.42;55.53;99184.78;4969591;28;45379;-64
2023/07/27 00:34:04;;;;;;;;;1.50;1.00;;;;;18.41;55.68;99191.91;4972284;28;45497;-64
2023/07/27 00:36:30;;;;;;;;;3.00;3.00;;;;;18.40;55.74;99192.88;4969709;28;46380;-64
2023/07/27 00:38:55;;;;;;;;;3.75;3.75;;;;;18.38;56.10;99189.47;4973278;28;45544;-64
2023/07/27 00:41:20;;;;;;;;;2.50;2.50;;;;;18.36;55.85;99186.03;4971397;28;45701;-64
2023/07/27 00:43:46;;;;;;;;;4.25;4.25;;;;;18.35;55.89;99196.81;4970075;28;45539;-64
2023/07/27 00:46:11;;;;;;;;;5.00;4.25;;;;;18.33;56.42;99198.75;4970847;28;46273;-64
2023/07/27 00:48:39;;;;;;;;;4.00;4.00;;;;;18.32;56.74;99195.22;4975154;28;45462;-66
2023/07/27 00:51:06;;;;;;;;;5.20;4.00;;;;;18.28;56.80;99192.88;4970274;28;45455;-64
2023/07/27 00:53:32;;;;;;;;;4.80;3.80;;;;;18.25;56.77;99188.63;4974246;28;45652;-64
2023/07/27 00:55:59;;;;;;;;;3.25;3.00;;;;;18.21;57.20;99187.13;4971562;28;46418;-64
2023/07/27 00:58:25;;;;;;;;;2.80;2.80;;;;;18.18;57.17;99197.16;4974464;28;45544;-66
2023/07/27 01:00:50;;;;;;;;;6.20;5.00;;;;;18.13;57.35;99193.00;4972372;28;45449;-64
2023/07/27 01:03:16;;;;;;;;;4.00;4.00;;;;;18.10;57.30;99192.34;4974831;28;45459;-66
2023/07/27 01:05:41;;;;;;;;;4.00;4.00;;;;;18.06;57.56;99197.06;4968795;28;47858;-66
2023/07/27 01:08:07;;;;;;;;;3.00;3.00;;;;;18.04;57.71;99192.78;4974388;28;45468;-65
2023/07/27 01:10:53;;;;;;;;;3.00;3.00;;;;;18.01;57.95;99193.00;4969956;28;45432;-66
2023/07/27 01:13:42;;;;;;;;;4.25;4.00;;;;;18.00;58.13;99194.81;4971945;28;45454;-66
2023/07/27 01:16:12;;;;;;;;;3.00;3.00;;;;;17.98;57.89;99187.88;4971989;28;46741;-66
2023/07/27 01:18:55;;;;;;;;;3.40;3.40;;;;;17.96;58.18;99184.44;4974249;28;45392;-66
2023/07/27 01:21:29;;;;;;;;;5.50;3.00;;;;;17.95;58.16;99185.41;4972231;28;45521;-66
2023/07/27 01:24:13;;;;;;;;;2.25;2.25;;;;;17.93;58.17;99185.50;4972970;28;45419;-65
2023/07/27 01:26:59;;;;;;;;;3.80;2.80;;;;;17.92;58.00;99188.31;4974208;28;46607;-66
2023/07/27 01:29:52;;;;;;;;;4.00;4.00;;;;;17.91;58.34;99183.94;4970446;28;45729;-65
2023/07/27 01:32:20;;;;;;;;;4.40;4.40;;;;;17.89;58.37;99183.19;4967456;28;45387;-66
2023/07/27 01:34:50;;;;;;;;;5.50;4.50;;;;;17.88;58.61;99179.66;4965953;28;45485;-66
2023/07/27 01:37:17;;;;;;;;;5.20;5.20;;;;;17.88;58.82;99178.81;4974042;28;45486;-66
2023/07/27 01:39:47;;;;;;;;;5.00;5.00;;;;;17.85;58.93;99181.69;4972900;28;45541;-65
2023/07/27 01:42:13;;;;;;;;;4.40;3.00;;;;;17.81;58.77;99191.69;4973151;28;45470;-66
2023/07/27 01:44:40;;;;;;;;;3.00;3.00;;;;;17.76;58.88;99188.50;4970145;28;45692;-66
2023/07/27 01:47:06;;;;;;;;;5.00;3.60;;;;;17.71;59.06;99194.16;4974154;28;45386;-65
2023/07/27 01:49:33;;;;;;;;;4.00;4.00;;;;;17.68;59.27;99198.84;4971394;28;45507;-66
2023/07/27 01:52:01;;;;;;;;;3.80;3.60;;;;;17.68;59.55;99198.84;4974280;28;45399;-65
2023/07/27 01:54:27;;;;;;;;;4.00;4.00;;;;;17.66;59.62;99206.94;4970413;28;45432;-65
2023/07/27 01:56:54;;;;;;;;;5.00;5.00;;;;;17.65;59.27;99197.22;4971805;28;46563;-65
2023/07/27 01:59:21;;;;;;;;;3.00;2.60;;;;;17.64;59.04;99186.66;4971966;28;45433;-66
2023/07/27 02:01:49;;;;;;;;;3.00;3.00;;;;;17.63;59.79;99195.59;4974437;28;45390;-65
2023/07/27 02:04:14;;;;;;;;;3.50;3.50;;;;;17.62;59.45;99196.53;4962486;28;45552;-65
2023/07/27 02:06:40;;;;;;;;;3.00;3.00;;;;;17.60;59.56;99203.78;4968529;28;46319;-66
2023/07/27 02:09:05;;;;;;;;;4.25;3.00;;;;;17.59;59.66;99200.28;4966055;28;45481;-65
2023/07/27 02:11:31;;;;;;;;;4.75;4.00;;;;;17.55;59.98;99196.13;4974142;28;45420;-66
2023/07/27 02:14:01;;;;;;;;;5.00;5.00;;;;;17.56;59.78;99199.63;4971565;28;45631;-65
2023/07/27 02:16:44;;;;;;;;;5.25;4.00;;;;;17.54;59.43;99199.75;4972615;28;46059;-65
2023/07/27 02:19:12;;;;;;;;;6.20;5.00;;;;;17.52;59.52;99190.97;4971598;28;45506;-65
2023/07/27 02:21:38;;;;;;;;;4.25;4.25;;;;;17.50;59.65;99197.38;4971363;28;45403;-65
2023/07/27 02:24:05;;;;;;;;;6.00;6.00;;;;;17.48;59.59;99191.28;4972090;28;45338;-65
2023/07/27 02:26:30;;;;;;;;;4.20;4.20;;;;;17.47;59.39;99189.56;4972052;28;45481;-65
2023/07/27 02:28:56;;;;;;;;;3.25;3.25;;;;;17.44;59.67;99194.16;4972392;28;45466;-65
2023/07/27 02:31:23;;;;;;;;;5.00;4.00;;;;;17.47;59.73;99202.91;4972499;28;45533;-65
2023/07/27 02:33:48;;;;;;;;;6.75;5.00;;;;;17.44;59.03;99196.81;4976148;28;45468;-65
2023/07/27 02:36:14;;;;;;;;;4.00;4.00;;;;;17.42;59.28;99204.09;4972472;28;45464;-65
2023/07/27 02:38:39;;;;;;;;;7.25;5.00;;;;;17.41;59.60;99197.03;4976917;28;45454;-64
2023/07/27 02:41:04;;;;;;;;;4.75;4.75;;;;;17.39;59.56;99198.09;4971722;28;45413;-65
2023/07/27 02:43:30;;;;;;;;;4.50;4.50;;;;;17.37;59.80;99197.34;4976738;28;45464;-65
2023/07/27 02:45:59;;;;;;;;;7.00;5.00;;;;;17.32;59.76;99194.97;4969308;28;46102;-65
2023/07/27 02:48:25;;;;;;;;;4.80;4.60;;;;;17.29;60.01;99192.50;4977051;28;45459;-65
2023/07/27 02:50:51;;;;;;;;;7.50;5.50;;;;;17.29;60.64;99191.66;4971498;28;45450;-66
2023/07/27 02:53:17;;;;;;;;;3.00;3.00;;;;;17.27;60.34;99180.25;4976808;28;45430;-66
2023/07/27 02:55:42;;;;;;;;;7.75;6.25;;;;;17.26;60.28;99187.38;4970715;28;45986;-65
2023/07/27 02:58:08;;;;;;;;;4.50;4.50;;;;;17.24;60.65;99178.66;4976539;28;45427;-65
2023/07/27 03:00:33;;;;;;;;;4.50;4.50;;;;;17.27;60.50;99177.56;4973843;28;45431;-65
2023/07/27 03:03:00;;;;;;;;;6.50;5.00;;;;;17.27;60.64;99180.25;4975776;28;45573;-64
2023/07/27 03:05:26;;;;;;;;;5.00;5.00;;;;;17.27;60.69;99177.56;4974808;28;47216;-65
2023/07/27 03:07:52;;;;;;;;;5.00;4.80;;;;;17.27;60.65;99174.91;4976656;28;45371;-65
2023/07/27 03:10:17;;;;;;;;;3.75;3.75;;;;;17.27;60.75;99178.44;4974526;28;45404;-65
2023/07/27 03:12:42;;;;;;;;;6.00;6.00;;;;;17.26;60.70;99171.38;4976605;28;45641;-65
2023/07/27 03:15:08;;;;;;;;;4.75;4.75;;;;;17.25;60.80;99175.03;4974413;28;46195;-65
2023/07/27 03:17:34;;;;;;;;;5.25;5.00;;;;;17.23;60.99;99174.28;4976256;28;45675;-65
2023/07/27 03:19:59;;;;;;;;;5.25;4.75;;;;;17.21;61.44;99170.00;4974137;28;45471;-65
2023/07/27 03:22:24;;;;;;;;;3.50;3.50;;;;;17.18;61.31;99172.88;4976427;28;45470;-65
2023/07/27 03:24:50;;;;;;;;;5.25;4.50;;;;;17.13;61.43;99174.97;4974763;28;46695;-65
2023/07/27 03:27:15;;;;;;;;;5.75;4.75;;;;;17.09;62.10;99175.16;4976456;28;45470;-65
2023/07/27 03:29:40;;;;;;;;;3.25;3.25;;;;;17.06;62.24;99180.72;4974430;28;45467;-65
2023/07/27 03:32:06;;;;;;;;;5.00;4.00;;;;;17.03;62.02;99172.06;4972585;28;45480;-65
2023/07/27 03:34:32;;;;;;;;;4.00;4.00;;;;;16.98;62.36;99177.69;4974426;28;46185;-65
2023/07/27 03:36:57;;;;;;;;;6.00;6.00;;;;;16.95;62.49;99180.56;4973544;28;45451;-65
2023/07/27 03:39:22;;;;;;;;;5.75;4.00;;;;;16.91;62.31;99181.72;4975422;28;45481;-65
2023/07/27 03:41:48;;;;;;;;;4.25;4.00;;;;;16.89;62.40;99175.66;4969516;28;45434;-65
2023/07/27 03:44:14;;;;;;;;;5.25;5.00;;;;;16.86;62.47;99173.19;4974010;28;45498;-65
2023/07/27 03:46:39;;;;;;;;;3.00;3.00;;;;;16.85;62.30;99174.13;4975978;28;45430;-65
2023/07/27 03:49:05;;;;;;;;;3.50;3.50;;;;;16.84;62.20;99175.09;4975377;28;45534;-65
2023/07/27 03:51:30;;;;;;;;;4.00;4.00;;;;;16.82;62.40;99179.66;4971448;28;45383;-65
2023/07/27 03:53:56;;;;;;;;;22.67;22.67;;;;;16.81;62.77;99191.25;4973817;28;46127;-65
2023/07/27 03:56:21;;;;;;;;;5.25;5.00;;;;;16.79;62.65;99194.97;4970285;28;45485;-65
2023/07/27 03:58:46;;;;;;;;;6.00;5.75;;;;;16.77;62.86;99194.19;4974922;28;45361;-65
2023/07/27 04:01:12;;;;;;;;;4.50;4.50;;;;;16.76;63.40;99197.84;4974230;28;45472;-65
2023/07/27 04:03:37;;;;;;;;;3.75;3.75;;;;;16.76;62.91;99203.16;4975502;28;46077;-65
2023/07/27 04:06:03;;;;;;;;;7.00;6.75;;;;;16.74;62.61;99201.47;4965815;28;45391;-65
2023/07/27 04:08:28;;;;;;;;;5.25;5.00;;;;;16.70;62.51;99205.25;4971723;28;45904;-65
2023/07/27 04:10:53;;;;;;;;;7.75;6.25;;;;;16.68;62.47;99198.31;4969465;28;45387;-65
2023/07/27 04:13:19;;;;;;;;;4.75;4.75;;;;;16.66;63.08;99193.09;4974573;28;45666;-65
2023/07/27 04:15:44;;;;;;;;;10.50;6.75;;;;;16.66;62.71;99194.91;4969056;28;45520;-65
2023/07/27 04:18:09;;;;;;;;;6.00;6.00;;;;;16.63;62.89;99190.63;4975724;28;45524;-65
2023/07/27 04:20:35;;;;;;;;;0.75;0.75;;;;;16.62;63.14;99196.00;4967830;28;45362;-65
2023/07/27 04:23:00;;;;;;;;;10.50;8.25;;;;;16.61;63.39;99199.63;4975277;28;46548;-65
2023/07/27 04:25:26;;;;;;;;;6.00;4.50;;;;;16.60;63.54;99197.91;4971361;28;45433;-65
2023/07/27 04:27:51;;;;;;;;;5.75;5.75;;;;;16.60;63.11;99188.09;4973390;28;45898;-64
2023/07/27 04:30:17;;;;;;;;;5.00;5.00;;;;;16.63;63.30;99197.75;4972028;28;45522;-65
2023/07/27 04:32:43;;;;;;;;;4.75;4.25;;;;;16.65;63.23;99198.50;4973853;28;46614;-65
2023/07/27 04:35:08;;;;;;;;;6.00;5.00;;;;;16.65;62.94;99199.38;4972802;28;45391;-66
2023/07/27 04:37:34;;;;;;;;;4.00;4.00;;;;;16.67;62.93;99201.94;4973593;28;45756;-64
2023/07/27 04:39:59;;;;;;;;;5.00;5.00;;;;;16.70;62.92;99199.09;4973801;28;45699;-65
2023/07/27 04:42:24;;;;;;;;;5.00;5.00;;;;;16.70;62.82;99205.25;4975232;28;45400;-65
2023/07/27 04:44:50;;;;;;;;;5.75;5.75;;;;;16.73;62.46;99206.88;4971535;28;45375;-65
2023/07/27 04:47:15;;;;;;;;;6.75;5.50;;;;;16.73;62.57;99207.72;4971111;28;46008;-65
2023/07/27 04:49:40;;;;;;;;;6.25;6.25;;;;;16.74;62.83;99211.25;4973682;28;45547;-65
2023/07/27 04:52:06;;;;;;;;;5.00;5.00;;;;;16.74;63.44;99217.44;4970529;28;45770;-64
2023/07/27 04:54:32;;;;;;;;;8.50;6.00;;;;;16.74;63.65;99216.56;4984698;28;45909;-65
2023/07/27 04:56:57;;;;;;;;;5.50;5.25;;;;;16.72;64.05;99227.31;4972697;28;45621;-64
2023/07/27 04:59:22;;;;;;;;;7.75;7.75;;;;;16.73;63.78;99229.03;4972045;28;45555;-64
2023/07/27 05:01:48;;;;;;;;;6.75;6.25;;;;;16.75;63.71;99228.94;4973648;28;46133;-64
2023/07/27 05:04:13;;;;;;;;;7.00;7.00;;;;;16.76;64.10;99222.63;4972637;28;45357;-64
2023/07/27 05:06:39;;;;;;;;;6.75;6.75;;;;;16.80;63.99;99229.47;4970555;28;45340;-64
2023/07/27 05:09:05;;;;;;;;;9.25;9.25;;;;;16.83;63.61;99233.75;4972426;28;45544;-64
2023/07/27 05:11:30;;;;;;;;;6.50;6.00;;;;;16.86;63.46;99230.91;4987586;28;47840;-63
2023/07/27 05:13:56;;;;;;;;;5.75;5.25;;;;;16.88;63.82;99232.53;4972229;28;45436;-63
2023/07/27 05:16:21;;;;;;;;;9.75;8.25;;;;;16.91;63.82;99220.81;4972439;28;46053;-63
2023/07/27 05:18:46;;;;;;;;;4.00;3.50;;;;;16.93;63.40;99225.06;4973510;28;45409;-64
2023/07/27 05:21:12;;;;;;;;;6.50;6.00;;;;;16.96;63.13;99216.88;4970335;28;45439;-63
2023/07/27 05:23:37;;;;;;;;;6.00;5.25;;;;;16.96;63.67;99222.22;4974405;28;45423;-63
2023/07/27 05:26:03;;;;;;;;;9.25;6.50;;;;;16.96;63.28;99216.88;4972626;28;45526;-63
2023/07/27 05:28:28;;;;;;;;;8.00;8.00;;;;;16.98;63.74;99222.97;4973420;28;45615;-63
2023/07/27 05:30:54;;;;;;;;;8.75;7.50;;;;;16.99;63.71;99227.34;4971047;28;45423;-64
2023/07/27 05:33:19;;;;;;;;;7.75;7.00;;;;;17.00;63.92;99215.75;4973668;28;45422;-64
2023/07/27 05:35:48;;;;;;;;;9.00;6.00;;;;;17.03;63.79;99218.22;4971774;28;45380;-65
2023/07/27 05:38:14;;;;;;;;;8.50;8.50;;;;;17.06;63.63;99211.84;4966346;28;45590;-63
2023/07/27 05:40:39;;;;;;;;;9.25;7.00;;;;;17.07;63.64;99214.41;4969136;28;45718;-63
2023/07/27 05:43:05;;;;;;;;;6.25;5.25;;;;;17.07;63.36;99211.75;4969056;28;45478;-64
2023/07/27 05:45:31;;;;;;;;;8.50;6.25;;;;;17.09;63.67;99216.97;4966805;28;45449;-64
2023/07/27 05:47:56;;;;;;;;;7.25;7.00;;;;;17.12;63.81;99214.09;4971473;28;45560;-64
2023/07/27 05:50:22;;;;;;;;;9.25;8.25;;;;;17.11;63.84;99212.38;4967172;28;45513;-66
2023/07/27 05:52:47;;;;;;;;;6.50;6.50;;;;;17.12;63.58;99211.41;4969443;28;45560;-66
2023/07/27 05:55:13;;;;;;;;;5.00;4.75;;;;;17.15;63.76;99215.69;4968147;28;45586;-66
2023/07/27 05:57:41;;;;;;;;;5.50;5.00;;;;;17.20;63.10;99209.13;4970365;28;45481;-66
2023/07/27 06:00:07;;;;;;;;;6.50;5.50;;;;;17.26;62.95;99213.19;4967180;28;46611;-66
2023/07/27 06:02:32;;;;;;;;;6.00;6.00;;;;;17.36;62.83;99217.81;4972284;28;45516;-66
2023/07/27 06:04:58;;;;;;;;;4.00;4.00;;;;;17.43;62.37;99218.25;4967110;28;45466;-66
2023/07/27 06:07:23;;;;;;;;;4.25;4.25;;;;;17.47;62.53;99217.09;4974437;28;45418;-69
2023/07/27 06:09:48;;;;;;;;;6.00;6.00;;;;;17.51;62.47;99212.41;4974075;28;46116;-63
2023/07/27 06:12:14;;;;;;;;;4.25;4.25;;;;;17.56;62.60;99213.81;4975628;28;45330;-63
2023/07/27 06:14:39;;;;;;;;;8.25;5.75;;;;;17.70;62.29;99216.44;4970861;28;45453;-63
2023/07/27 06:17:05;;;;;;;;;6.00;6.00;;;;;17.78;62.09;99215.91;4976165;28;45693;-63
2023/07/27 06:19:31;;;;;;;;;6.00;6.00;;;;;17.82;61.63;99220.06;4971693;28;45710;-63
2023/07/27 06:21:56;;;;;;;;;8.50;8.00;;;;;17.84;61.29;99211.97;4973473;28;45512;-63
2023/07/27 06:24:21;;;;;;;;;7.00;7.00;;;;;17.82;61.49;99208.56;4973067;28;45431;-62
2023/07/27 06:26:47;;;;;;;;;6.50;6.00;;;;;17.83;61.58;99207.59;4974899;28;45444;-62
2023/07/27 06:29:12;;;;;;;;;6.00;6.00;;;;;17.85;61.68;99208.34;4972458;28;45537;-63
2023/07/27 06:31:37;;;;;;;;;9.50;6.25;;;;;17.86;61.43;99202.91;4975005;28;45458;-63
2023/07/27 06:34:03;;;;;;;;;5.00;5.00;;;;;17.88;61.51;99197.47;4974754;28;45466;-64
2023/07/27 06:36:28;;;;;;;;;10.00;6.75;;;;;17.87;61.02;99193.97;4969476;28;45501;-63
2023/07/27 06:38:54;;;;;;;;;7.25;5.50;;;;;17.91;60.95;99200.78;4974613;28;45563;-63
2023/07/27 06:41:24;;;;;;;;;8.50;6.75;;;;;17.95;61.20;99196.94;4968921;28;45466;-62
2023/07/27 06:43:50;;;;;;;;;6.20;5.40;;;;;17.98;60.96;99199.41;4974409;28;45327;-63
2023/07/27 06:46:16;;;;;;;;;6.75;6.00;;;;;18.04;60.81;99192.78;4967536;28;45627;-63
2023/07/27 06:48:41;;;;;;;;;6.20;6.20;;;;;18.10;60.77;99195.00;4970244;28;45563;-63
2023/07/27 06:51:06;;;;;;;;;8.50;8.50;;;;;18.14;60.63;99199.19;4965850;28;45525;-63
2023/07/27 06:53:32;;;;;;;;;12.00;8.00;;;;;18.18;60.32;99198.00;4967429;28;45479;-62
2023/07/27 06:55:57;;;;;;;;;6.00;5.00;;;;;18.23;60.23;99189.69;4969018;28;45590;-63
2023/07/27 06:58:23;;;;;;;;;6.00;6.00;;;;;18.28;60.19;99199.06;4975292;28;45473;-62
2023/07/27 07:00:48;;;;;;;;;8.00;5.25;;;;;18.34;60.04;99197.78;4971495;28;45446;-62
2023/07/27 07:03:13;;;;;;;;;9.75;7.00;;;;;18.41;59.77;99194.59;4975140;28;45711;-63
2023/07/27 07:05:39;;;;;;;;;4.75;4.75;;;;;18.46;59.37;99180.91;4968365;28;45996;-63
2023/07/27 07:08:04;;;;;;;;;6.75;5.00;;;;;18.50;59.08;99177.03;4975407;28;45468;-62
2023/07/27 07:10:29;;;;;;;;;5.50;5.00;;;;;18.56;58.97;99181.97;4971171;28;45530;-63
2023/07/27 07:12:55;;;;;;;;;8.00;5.50;;;;;18.61;58.52;99178.97;4974498;28;45446;-63
2023/07/27 07:15:20;;;;;;;;;5.00;5.00;;;;;18.67;58.53;99176.72;4973714;28;45478;-63
2023/07/27 07:17:46;;;;;;;;;6.50;5.25;;;;;18.73;58.66;99172.75;4970207;28;48187;-63
2023/07/27 07:20:11;;;;;;;;;6.50;6.50;;;;;18.79;58.27;99174.97;4971018;28;45504;-63
2023/07/27 07:22:37;;;;;;;;;8.00;6.25;;;;;18.85;58.08;99174.53;4975399;28;45374;-63
2023/07/27 07:25:03;;;;;;;;;4.25;4.25;;;;;18.92;57.78;99172.28;4972954;28;45467;-62
2023/07/27 07:27:28;;;;;;;;;7.00;6.50;;;;;18.97;57.08;99168.28;4975519;28;46089;-63
2023/07/27 07:29:54;;;;;;;;;5.25;5.25;;;;;19.03;57.57;99166.97;4972217;28;45399;-62
2023/07/27 07:32:19;;;;;;;;;7.00;5.00;;;;;19.09;56.87;99170.06;4969306;28;45385;-63
2023/07/27 07:34:44;;;;;;;;;4.50;4.00;;;;;19.14;56.97;99167.88;4969932;28;45486;-62
2023/07/27 07:37:10;;;;;;;;;5.25;5.00;;;;;19.21;56.39;99164.78;4967198;28;46041;-62
2023/07/27 07:39:35;;;;;;;;;5.00;5.00;;;;;19.29;56.19;99160.53;4971851;28;45509;-62
2023/07/27 07:42:01;;;;;;;;;3.50;3.50;;;;;19.37;55.90;99157.31;4973627;28;45606;-62
2023/07/27 07:44:26;;;;;;;;;4.50;4.50;;;;;19.45;55.96;99152.22;4965155;28;45477;-62
2023/07/27 07:46:52;;;;;;;;;7.00;5.75;;;;;19.51;55.54;99152.63;4973582;28;46679;-62
2023/07/27 07:49:17;;;;;;;;;4.50;4.25;;;;;19.57;55.78;99140.63;4973288;28;45505;-62
2023/07/27 07:51:43;;;;;;;;;5.25;5.25;;;;;19.64;55.13;99141.84;4974187;28;45364;-62
2023/07/27 07:54:09;;;;;;;;;7.25;7.00;;;;;19.73;54.96;99133.13;4972157;28;45591;-62
2023/07/27 07:56:35;;;;;;;;;4.00;4.00;;;;;19.81;54.49;99130.69;4971262;28;46456;-62
2023/07/27 07:59:01;;;;;;;;;5.75;5.00;;;;;19.88;54.88;99123.06;4971470;28;45630;-62
2023/07/27 08:01:26;;;;;;;;;6.75;6.75;;;;;19.98;54.57;99115.16;4972919;28;46063;-62
2023/07/27 08:03:52;;;;;;;;;2.00;2.00;;;;;20.03;54.91;99102.25;4974405;28;45548;-62
2023/07/27 08:06:17;;;;;;;;;8.25;7.75;;;;;20.07;54.46;99093.03;4972833;28;46389;-63
2023/07/27 08:08:43;;;;;;;;;4.75;4.75;;;;;20.12;54.33;99093.47;4974314;28;45313;-62
2023/07/27 08:11:08;;;;;;;;;5.00;4.00;;;;;20.20;53.86;99094.59;4966369;28;45396;-62
2023/07/27 08:13:34;;;;;;;;;4.50;4.25;;;;;20.28;54.16;99099.31;4973274;28;45505;-62
2023/07/27 08:15:59;;;;;;;;;5.75;5.00;;;;;20.36;53.37;99085.31;4972392;28;45689;-63
2023/07/27 08:18:25;;;;;;;;;5.25;4.50;;;;;20.44;53.05;99086.44;4974139;28;45402;-62
2023/07/27 08:21:01;;;;;;;;;5.00;5.00;;;;;20.52;52.54;99078.63;4972553;28;45413;-62
2023/07/27 08:23:27;;;;;;;;;5.75;5.00;;;;;20.58;52.35;99077.28;4973985;28;45553;-62
2023/07/27 08:25:53;;;;;;;;;5.60;5.60;;;;;20.65;52.05;99072.25;4972655;28;46379;-63
2023/07/27 08:28:20;;;;;;;;;6.00;6.00;;;;;20.72;52.02;99074.31;4973622;28;45406;-62
2023/07/27 08:30:45;;;;;;;;;6.20;6.00;;;;;20.80;51.26;99069.16;4965034;28;45438;-62
2023/07/27 08:33:12;;;;;;;;;5.50;5.00;;;;;20.88;50.72;99060.50;4974037;28;45544;-63
2023/07/27 08:35:38;;;;;;;;;5.40;5.00;;;;;20.95;51.03;99060.84;4966138;28;45398;-63
2023/07/27 08:38:03;;;;;;;;;7.25;4.75;;;;;21.01;50.46;99057.66;4973193;28;45423;-63
2023/07/27 08:40:29;;;;;;;;;6.25;3.50;;;;;21.08;50.06;99056.16;4971348;28;45380;-62
2023/07/27 08:42:55;;;;;;;;;4.00;4.00;;;;;21.14;50.13;99048.44;4972459;28;45369;-62
2023/07/27 08:45:21;;;;;;;;;5.00;4.00;;;;;21.19;49.31;99045.38;4968612;28;45475;-63
2023/07/27 08:47:48;;;;;;;;;5.25;5.25;;;;;21.25;49.64;99044.91;4974384;28;45516;-63
2023/07/27 08:50:14;;;;;;;;;7.00;5.00;;;;;21.32;49.19;99034.47;4970055;28;45502;-62
2023/07/27 08:52:40;;;;;;;;;4.50;4.00;;;;;21.36;48.29;99033.25;4970127;28;45526;-63
2023/07/27 08:55:05;;;;;;;;;5.25;4.00;;;;;21.40;48.60;99030.16;4970815;28;45522;-63
2023/07/27 08:57:31;;;;;;;;;4.00;4.00;;;;;21.44;49.06;99025.41;4972955;28;45464;-62
2023/07/27 08:59:57;;;;;;;;;3.50;3.50;;;;;21.49;48.67;99012.41;4958505;28;45660;-63
2023/07/27 09:02:22;;;;;;;;;7.50;5.25;;;;;21.55;48.67;99011.91;4969802;28;45443;-63
2023/07/27 09:04:47;;;;;;;;;5.25;4.50;;;;;21.65;48.20;99011.94;4971099;28;45603;-63
2023/07/27 09:07:13;;;;;;;;;5.00;4.75;;;;;21.73;48.73;99004.06;4972105;28;45370;-63
2023/07/27 09:09:39;;;;;;;;;5.25;5.00;;;;;21.78;48.64;99000.00;4971914;28;45463;-63
2023/07/27 09:12:06;;;;;;;;;6.75;5.25;;;;;21.88;48.06;98997.34;4960384;28;45331;-63
2023/07/27 09:14:38;;;;;;;;;5.00;5.00;;;;;21.98;47.80;98992.00;4973280;28;47245;-63
2023/07/27 09:17:04;;;;;;;;;6.40;6.00;;;;;22.06;47.64;99000.28;4972841;28;45338;-62
2023/07/27 09:19:37;;;;;;;;;4.60;4.60;;;;;22.17;47.49;98994.78;4960400;28;45342;-63
2023/07/27 09:22:02;;;;;;;;;2.20;2.20;;;;;22.26;47.07;98993.97;4973864;28;45599;-63
2023/07/27 09:24:32;;;;;;;;;6.00;4.50;;;;;22.34;46.97;98991.44;4974004;28;46345;-62
2023/07/27 09:26:58;;;;;;;;;5.40;5.40;;;;;22.42;47.35;98990.75;4973712;28;45438;-63
2023/07/27 09:29:24;;;;;;;;;4.00;4.00;;;;;22.49;47.56;98989.19;4973296;28;45402;-62
2023/07/27 09:31:52;;;;;;;;;6.25;6.00;;;;;22.58;46.69;98991.91;4972170;28;45505;-63
2023/07/27 09:34:20;;;;;;;;;9.80;7.00;;;;;22.66;46.91;98993.00;4971768;28;46506;-62
2023/07/27 09:36:46;;;;;;;;;4.40;4.40;;;;;22.73;46.48;98995.00;4973579;28;45428;-62
2023/07/27 09:39:13;;;;;;;;;8.80;8.00;;;;;22.81;46.20;98991.63;4973705;28;45402;-62
2023/07/27 09:41:43;;;;;;;;;4.20;4.20;;;;;22.85;45.75;98993.03;4971587;28;45382;-62
2023/07/27 09:44:12;;;;;;;;;4.60;3.40;;;;;22.90;45.56;98983.56;4970330;28;45490;-63
2023/07/27 09:46:38;;;;;;;;;4.00;4.00;;;;;22.93;44.76;98987.81;4973613;28;45382;-63
2023/07/27 09:49:04;;;;;;;;;3.75;3.00;;;;;22.98;45.09;98988.22;4974067;28;45395;-63
2023/07/27 09:51:29;;;;;;;;;5.50;5.50;;;;;23.00;44.35;98983.56;4971866;28;45522;-63
2023/07/27 09:53:55;;;;;;;;;4.00;4.00;;;;;23.05;45.08;98978.59;4972874;28;45431;-62
2023/07/27 09:56:22;;;;;;;;;4.80;4.00;;;;;23.14;44.54;98980.41;4973126;28;45453;-62
2023/07/27 09:58:48;;;;;;;;;4.40;4.00;;;;;23.26;44.64;98983.81;4972794;28;45343;-63
2023/07/27 10:01:13;;;;;;;;;5.00;4.50;;;;;23.36;43.15;98978.38;4966407;28;45533;-63
2023/07/27 10:03:39;;;;;;;;;5.50;5.00;;;;;23.44;43.12;98975.84;4973412;28;46346;-63
2023/07/27 10:06:05;;;;;;;;;4.00;4.00;;;;;23.50;43.28;98970.69;4973050;28;45423;-64
2023/07/27 10:08:34;;;;;;;;;6.40;5.60;;;;;23.59;43.61;98974.41;4971933;28;45468;-63
2023/07/27 10:11:01;;;;;;;;;5.00;5.00;;;;;23.66;43.38;98973.63;4973515;28;45626;-63
2023/07/27 10:13:26;;;;;;;;;5.60;4.40;;;;;23.75;44.01;98971.06;4970518;28;47188;-61
2023/07/27 10:15:54;;;;;;;;;5.75;5.75;;;;;23.84;43.79;98967.47;4970471;28;45331;-64
2023/07/27 10:18:27;;;;;;;;;4.60;2.80;;;;;23.91;43.77;98964.06;4973365;28;45417;-64
2023/07/27 10:20:56;;;;;;;;;7.20;5.20;;;;;23.98;44.19;98962.44;4973060;28;45655;-63
2023/07/27 10:23:29;;;;;;;;;3.80;3.80;;;;;24.06;42.56;98966.25;4972945;28;45546;-63
2023/07/27 10:25:55;;;;;;;;;5.80;5.80;;;;;24.12;41.97;98955.72;4972969;28;45476;-63
2023/07/27 10:28:38;;;;;;;;;5.00;4.00;;;;;24.15;42.20;98958.09;4973001;28;45602;-63
2023/07/27 10:31:24;;;;;;;;;4.00;4.00;;;;;24.20;42.21;98957.63;4973168;28;45333;-63
2023/07/27 10:34:02;;;;;;;;;4.80;4.80;;;;;24.24;42.73;98945.59;4970433;28;46488;-63
2023/07/27 10:36:49;;;;;;;;;3.00;2.00;;;;;24.29;42.59;98946.00;4965653;28;45450;-63
2023/07/27 10:39:16;;;;;;;;;4.60;4.60;;;;;24.34;42.47;98944.53;4972195;28;45566;-63
2023/07/27 10:41:59;;;;;;;;;5.40;5.40;;;;;24.40;41.79;98944.91;4972551;28;45368;-63
2023/07/27 10:44:47;;;;;;;;;7.40;6.60;;;;;24.46;42.37;98945.16;4963884;28;45564;-57
2023/07/27 10:47:20;;;;;;;;;7.40;5.40;;;;;24.53;41.78;98932.75;4972308;28;45420;-63
2023/07/27 10:49:48;;;;;;;;;3.20;3.20;;;;;24.57;40.98;98934.13;4972756;28;45383;-58
2023/07/27 10:52:24;;;;;;;;;5.00;5.00;;;;;24.61;41.37;98921.22;4972319;28;45476;-61
2023/07/27 10:54:51;;;;;;;;;4.80;3.00;;;;;24.65;40.67;98925.25;4972867;28;46603;-61
2023/07/27 10:57:18;;;;;;;;;3.00;3.00;;;;;24.70;40.49;98923.81;4975692;28;45529;-62
2023/07/27 10:59:46;;;;;;;;;3.80;3.00;;;;;24.78;39.98;98922.19;4971462;28;45452;-61
2023/07/27 11:02:15;;;;;;;;;4.40;3.80;;;;;24.85;40.31;98913.28;4974085;28;45457;-61
2023/07/27 11:04:41;;;;;;;;;3.00;3.00;;;;;24.92;40.19;98898.19;4974876;28;46323;-61
2023/07/27 11:07:09;;;;;;;;;4.20;3.60;;;;;24.98;40.74;98902.13;4974138;28;45467;-61
2023/07/27 11:09:34;;;;;;;;;5.00;5.00;;;;;25.07;41.08;98898.50;4974733;28;45449;-61
2023/07/27 11:12:03;;;;;;;;;5.50;4.50;;;;;25.19;40.51;98891.81;4973976;28;45540;-62
2023/07/27 11:14:29;;;;;;;;;6.00;4.80;;;;;25.31;40.75;98892.38;4972346;28;47730;-61
2023/07/27 11:16:55;;;;;;;;;5.50;4.75;;;;;25.45;40.41;98888.25;4975259;28;45357;-61
2023/07/27 11:19:23;;;;;;;;;5.25;3.75;;;;;25.56;40.13;98887.97;4974444;28;45391;-61
2023/07/27 11:21:50;;;;;;;;;5.40;5.40;;;;;25.63;39.21;98875.56;4974571;28;45615;-61
2023/07/27 11:24:17;;;;;;;;;1.60;1.60;;;;;25.64;38.85;98871.81;4974825;28;47371;-60
2023/07/27 11:26:43;;;;;;;;;6.20;4.80;;;;;25.69;39.18;98869.47;4974729;28;45632;-62
2023/07/27 11:29:09;;;;;;;;;4.00;4.00;;;;;25.74;39.23;98864.44;4975756;28;45475;-61
2023/07/27 11:31:35;;;;;;;;;4.80;4.80;;;;;25.80;38.73;98869.19;4975578;28;45542;-62